createdAt,value
2018-10-18T04:01:24.228Z,39.60
2018-10-18T04:03:52.401Z,41.20
2018-10-18T04:06:20.617Z,40.10
2018-10-18T04:08:48.701Z,42.13
2018-10-18T04:11:16.858Z,40.93
2018-10-18T04:13:45.077Z,38.87
2018-10-18T04:16:13.397Z,38.53
2018-10-18T04:18:41.562Z,38.63
2018-10-18T04:21:09.742Z,40.30
2018-10-18T04:23:37.873Z,40.07
2018-10-18T04:26:06.012Z,39.87
2018-10-18T04:28:34.444Z,38.40
2018-10-18T04:31:03.456Z,40.00
2018-10-18T04:33:31.816Z,39.43
2018-10-18T04:36:00.038Z,42.70
2018-10-18T04:38:28.137Z,41.53
2018-10-18T04:40:56.333Z,40.93
2018-10-18T04:43:25.341Z,42.53
2018-10-18T04:45:53.589Z,39.83
2018-10-18T04:48:21.791Z,42.30
2018-10-18T04:50:49.995Z,43.07
2018-10-18T04:53:18.124Z,44.03
2018-10-18T04:55:46.397Z,44.27
2018-10-18T04:58:14.593Z,46.30
2018-10-18T05:00:42.743Z,44.60
2018-10-18T05:03:11.015Z,44.70
2018-10-18T05:05:52.823Z,42.73
2018-10-18T05:08:21.975Z,44.67
2018-10-18T05:10:50.122Z,47.33
2018-10-18T05:13:18.323Z,44.30
2018-10-18T05:15:46.466Z,45.70
2018-10-18T05:18:14.604Z,45.40
2018-10-18T05:20:42.791Z,46.47
2018-10-18T05:23:10.935Z,46.57
2018-10-18T05:25:39.322Z,45.90
2018-10-18T05:28:07.436Z,48.23
2018-10-18T05:30:35.603Z,48.20
2018-10-18T05:33:03.797Z,47.73
2018-10-18T05:35:31.967Z,51.17
2018-10-18T05:38:00.173Z,48.80
2018-10-18T05:40:28.344Z,60.90
2018-10-18T05:42:56.560Z,58.00
2018-10-18T05:45:24.714Z,57.50
2018-10-18T05:47:52.859Z,48.30
2018-10-18T05:50:21.010Z,51.10
2018-10-18T05:52:49.289Z,48.97
2018-10-18T05:55:17.582Z,50.27
2018-10-18T05:57:45.755Z,46.60
2018-10-18T06:00:15.663Z,45.70
2018-10-18T06:02:44.018Z,48.97
2018-10-18T06:05:19.225Z,46.63
2018-10-18T06:07:47.584Z,46.40
2018-10-18T06:10:27.792Z,44.67
2018-10-18T06:12:55.962Z,44.50
2018-10-18T06:15:24.309Z,47.40
2018-10-18T06:17:52.476Z,43.23
2018-10-18T06:20:21.384Z,46.73
2018-10-18T06:22:49.575Z,43.80
2018-10-18T06:25:17.798Z,42.30
2018-10-18T06:27:46.014Z,57.63
2018-10-18T06:30:15.588Z,47.40
2018-10-18T06:32:43.735Z,42.87
2018-10-18T06:35:13.216Z,40.10
2018-10-18T06:37:41.381Z,41.77
2018-10-18T06:40:12.080Z,44.50
2018-10-18T06:42:40.657Z,41.23
2018-10-18T06:45:11.289Z,43.27
2018-10-18T06:47:39.936Z,41.83
2018-10-18T06:50:09.898Z,41.87
2018-10-18T06:52:38.249Z,42.30
2018-10-18T06:55:06.703Z,40.63
2018-10-18T06:57:35.120Z,40.83
2018-10-18T07:00:03.349Z,40.97
2018-10-18T07:02:31.453Z,40.97
2018-10-18T07:04:59.648Z,41.67
2018-10-18T07:07:27.898Z,41.57
2018-10-18T07:09:56.180Z,41.73
2018-10-18T07:12:24.414Z,43.75
2018-10-18T07:14:52.587Z,42.10
2018-10-18T07:17:20.816Z,40.33
2018-10-18T07:19:49.647Z,39.33
2018-10-18T07:22:17.823Z,41.87
2018-10-18T07:24:46.026Z,39.20
2018-10-18T07:27:14.208Z,41.83
2018-10-18T07:29:42.364Z,37.53
2018-10-18T07:32:10.493Z,39.97
2018-10-18T07:34:38.696Z,40.17
2018-10-18T07:37:06.829Z,40.67
2018-10-18T07:39:34.982Z,41.13
2018-10-18T07:42:03.217Z,40.30
2018-10-18T07:44:31.345Z,40.73
2018-10-18T07:46:59.562Z,42.40
2018-10-18T07:49:27.658Z,41.70
2018-10-18T07:51:55.788Z,39.90
2018-10-18T07:54:23.925Z,40.57
2018-10-18T07:56:52.072Z,44.57
2018-10-18T07:59:20.232Z,43.10
2018-10-18T08:01:48.423Z,41.47
2018-10-18T08:04:16.640Z,42.83
2018-10-18T08:06:44.773Z,40.97
2018-10-18T08:09:14.265Z,41.80
2018-10-18T08:11:42.445Z,42.53
2018-10-18T08:14:10.945Z,41.53
2018-10-18T08:16:39.148Z,40.37
2018-10-18T08:19:07.497Z,42.53
2018-10-18T08:21:35.961Z,43.03
2018-10-18T08:24:04.152Z,42.83
2018-10-18T08:26:32.307Z,42.80
2018-10-18T08:29:00.614Z,45.03
2018-10-18T08:31:28.934Z,45.43
2018-10-18T08:33:56.955Z,44.17
2018-10-18T08:36:25.109Z,44.57
2018-10-18T08:38:55.745Z,44.37
2018-10-18T08:41:24.017Z,43.60
2018-10-18T08:43:52.237Z,43.67
2018-10-18T08:46:20.350Z,41.73
2018-10-18T08:48:48.505Z,42.80
2018-10-18T08:51:16.651Z,43.13
2018-10-18T08:53:44.817Z,42.13
2018-10-18T08:56:12.952Z,43.50
2018-10-18T08:58:41.110Z,45.50
2018-10-18T09:01:09.406Z,45.27
2018-10-18T09:03:37.502Z,46.00
2018-10-18T09:06:05.732Z,44.80
2018-10-18T09:08:33.874Z,45.43
2018-10-18T09:11:02.008Z,45.60
2018-10-18T09:13:30.161Z,46.50
2018-10-18T09:15:58.347Z,45.43
2018-10-18T09:18:26.452Z,45.23
2018-10-18T09:20:55.189Z,44.03
2018-10-18T09:23:23.777Z,43.13
2018-10-18T09:25:51.936Z,48.87
2018-10-18T09:28:20.083Z,47.47
2018-10-18T09:30:48.305Z,48.60
2018-10-18T09:33:16.445Z,48.07
2018-10-18T09:35:45.297Z,46.33
2018-10-18T09:38:13.494Z,49.80
2018-10-18T09:40:41.617Z,49.27
2018-10-18T09:43:09.850Z,50.63
2018-10-18T09:45:37.972Z,52.60
2018-10-18T09:48:06.123Z,51.97
2018-10-18T09:50:34.289Z,54.23
2018-10-18T09:53:02.483Z,49.27
2018-10-18T09:55:30.649Z,50.67
2018-10-18T09:57:58.791Z,51.00
2018-10-18T10:00:32.541Z,49.30
2018-10-18T10:03:06.301Z,50.10
2018-10-18T10:05:34.454Z,50.00
2018-10-18T10:08:02.590Z,51.13
2018-10-18T10:10:30.750Z,51.53
2018-10-18T10:12:58.896Z,51.63
2018-10-18T10:15:27.057Z,53.13
2018-10-18T10:17:55.224Z,52.93
2018-10-18T10:20:23.410Z,51.17
2018-10-18T10:22:51.570Z,55.03
2018-10-18T10:25:19.805Z,52.60
2018-10-18T10:27:47.961Z,50.90
2018-10-18T10:30:16.213Z,53.10
2018-10-18T10:32:44.328Z,55.80
2018-10-18T10:35:12.491Z,54.43
2018-10-18T10:37:40.665Z,54.10
2018-10-18T10:40:09.908Z,53.20
2018-10-18T10:42:38.309Z,56.60
2018-10-18T10:45:07.628Z,54.60
2018-10-18T10:47:35.769Z,54.60
2018-10-18T10:50:03.988Z,54.67
2018-10-18T10:52:32.098Z,56.00
2018-10-18T10:55:00.252Z,57.13
2018-10-18T10:57:28.398Z,57.37
2018-10-18T10:59:56.580Z,54.67
2018-10-18T11:02:24.770Z,56.20
2018-10-18T11:04:52.923Z,54.00
2018-10-18T11:07:21.100Z,55.07
2018-10-18T11:09:49.419Z,55.73
2018-10-18T11:12:17.511Z,54.00
2018-10-18T11:14:45.669Z,55.88
2018-10-18T11:17:13.907Z,58.55
2018-10-18T11:19:42.032Z,54.93
2018-10-18T11:22:10.210Z,56.83
2018-10-18T11:24:38.774Z,57.27
2018-10-18T11:27:06.983Z,53.13
2018-10-18T11:29:35.074Z,56.27
2018-10-18T11:32:03.279Z,56.25
2018-10-18T11:34:31.469Z,54.53
2018-10-18T11:36:59.551Z,55.50
2018-10-18T11:39:27.696Z,53.47
2018-10-18T11:41:55.866Z,49.85
2018-10-18T11:44:29.475Z,51.87
2018-10-18T11:46:57.633Z,51.95
2018-10-18T11:49:25.798Z,53.87
2018-10-18T11:51:54.013Z,52.40
2018-10-18T11:54:22.190Z,49.60
2018-10-18T11:56:50.438Z,47.65
2018-10-18T11:59:18.711Z,47.65
2018-10-18T12:01:46.776Z,44.38
2018-10-18T12:04:14.925Z,40.83
2018-10-18T12:06:43.093Z,41.48
2018-10-18T12:09:11.965Z,41.05
2018-10-18T12:11:40.336Z,43.85
2018-10-18T12:14:08.949Z,42.13
2018-10-18T12:16:37.106Z,44.58
2018-10-18T12:19:05.574Z,46.25
2018-10-18T12:21:33.747Z,44.35
2018-10-18T12:24:01.924Z,42.23
2018-10-18T12:26:30.100Z,45.38
2018-10-18T12:28:58.368Z,46.77
2018-10-18T12:31:27.384Z,45.92
2018-10-18T12:33:55.519Z,46.70
2018-10-18T12:36:23.649Z,46.40
2018-10-18T12:38:51.813Z,47.50
2018-10-18T12:41:20.187Z,47.88
2018-10-18T12:43:48.125Z,49.10
2018-10-18T12:46:16.277Z,47.43
2018-10-18T12:48:44.440Z,45.00
2018-10-18T12:51:12.660Z,47.03
2018-10-18T12:53:40.849Z,46.73
2018-10-18T12:56:09.026Z,47.65
2018-10-18T12:58:37.166Z,45.50
2018-10-18T13:01:05.521Z,46.60
2018-10-18T13:03:33.720Z,48.90
2018-10-18T13:06:01.869Z,48.48
2018-10-18T13:08:30.000Z,43.70
2018-10-18T13:10:58.173Z,47.00
2018-10-18T13:13:26.341Z,47.93
2018-10-18T13:15:54.518Z,49.75
2018-10-18T13:18:22.677Z,49.93
2018-10-18T13:20:50.844Z,50.88
2018-10-18T13:23:19.022Z,50.98
2018-10-18T13:25:47.157Z,53.73
2018-10-18T13:28:15.292Z,53.45
2018-10-18T13:30:43.490Z,54.67
2018-10-18T13:33:11.631Z,52.25
2018-10-18T13:35:39.820Z,53.50
2018-10-18T13:38:08.007Z,51.35
2018-10-18T13:40:36.192Z,52.90
2018-10-18T13:43:09.977Z,52.95
2018-10-18T13:45:44.632Z,55.47
2018-10-18T13:48:12.865Z,54.45
2018-10-18T13:50:41.078Z,53.50
2018-10-18T13:53:09.220Z,53.95
2018-10-18T13:55:37.364Z,52.98
2018-10-18T13:58:05.685Z,53.85
2018-10-18T14:00:33.849Z,54.03
2018-10-18T14:03:02.017Z,53.70
2018-10-18T14:05:30.224Z,55.83
2018-10-18T14:07:58.434Z,56.00
2018-10-18T14:10:26.666Z,54.70
2018-10-18T14:12:55.047Z,57.93
2018-10-18T14:15:23.189Z,57.25
2018-10-18T14:17:51.443Z,56.88
2018-10-18T14:20:19.639Z,55.28
2018-10-18T14:22:47.705Z,55.67
2018-10-18T14:25:15.904Z,56.65
2018-10-18T14:27:44.061Z,56.83
2018-10-18T14:30:13.123Z,55.75
2018-10-18T14:32:41.191Z,57.80
2018-10-18T14:35:10.790Z,58.63
2018-10-18T14:37:38.860Z,58.97
2018-10-18T14:40:08.215Z,57.15
2018-10-18T14:42:36.387Z,56.53
2018-10-18T14:45:06.118Z,56.63
2018-10-18T14:47:34.391Z,57.80
2018-10-18T14:50:02.656Z,58.70
2018-10-18T14:52:30.782Z,56.80
2018-10-18T14:54:58.947Z,58.23
2018-10-18T14:57:27.126Z,59.43
2018-10-18T14:59:55.308Z,57.27
2018-10-18T15:02:23.469Z,58.53
2018-10-18T15:04:51.693Z,58.13
2018-10-18T15:07:19.860Z,58.80
2018-10-18T15:09:49.024Z,59.70
2018-10-18T15:12:17.159Z,58.63
2018-10-18T15:14:45.532Z,58.37
2018-10-18T15:17:13.801Z,62.93
2018-10-18T15:19:41.874Z,59.53
2018-10-18T15:22:10.764Z,62.20
2018-10-18T15:24:38.901Z,58.90
2018-10-18T15:27:07.106Z,60.67
2018-10-18T15:29:35.321Z,60.27
2018-10-18T15:32:03.561Z,61.43
2018-10-18T15:34:31.835Z,60.30
2018-10-18T15:37:00.086Z,59.07
2018-10-18T15:39:28.285Z,59.83
2018-10-18T15:41:56.525Z,62.80
2018-10-18T15:44:24.725Z,60.07
2018-10-18T15:46:52.919Z,63.13
2018-10-18T15:49:21.072Z,62.97
2018-10-18T15:51:49.294Z,59.70
2018-10-18T15:54:17.534Z,62.07
2018-10-18T15:56:45.645Z,62.10
2018-10-18T15:59:13.877Z,62.03
2018-10-18T16:01:41.961Z,62.43
2018-10-18T16:04:10.109Z,63.83
2018-10-18T16:06:38.277Z,62.50
2018-10-18T16:09:10.349Z,65.60
2018-10-18T16:11:38.495Z,63.60
2018-10-18T16:14:06.734Z,61.00
2018-10-18T16:16:34.917Z,63.83
2018-10-18T16:19:03.352Z,64.80
2018-10-18T16:21:31.606Z,66.27
2018-10-18T16:23:59.858Z,66.10
2018-10-18T16:26:28.941Z,66.33
2018-10-18T16:28:57.141Z,65.07
2018-10-18T16:31:25.380Z,65.93
2018-10-18T16:33:53.611Z,67.77
2018-10-18T16:36:21.894Z,74.43
2018-10-18T16:38:50.077Z,66.70
2018-10-18T16:41:18.329Z,64.17
2018-10-18T16:43:46.386Z,65.83
2018-10-18T16:46:14.622Z,64.63
2018-10-18T16:48:42.808Z,64.60
2018-10-18T16:51:11.100Z,64.90
2018-10-18T16:53:39.304Z,63.57
2018-10-18T16:56:07.487Z,62.90
2018-10-18T16:58:35.619Z,62.57
2018-10-18T17:01:03.921Z,61.73
2018-10-18T17:03:32.057Z,66.63
2018-10-18T17:06:00.274Z,62.10
2018-10-18T17:08:28.425Z,62.73
2018-10-18T17:10:56.681Z,63.87
2018-10-18T17:13:24.862Z,60.13
2018-10-18T17:15:53.020Z,62.23
2018-10-18T17:18:21.254Z,63.53
2018-10-18T17:20:49.477Z,59.57
2018-10-18T17:23:17.621Z,60.40
2018-10-18T17:25:45.740Z,61.90
2018-10-18T17:28:13.922Z,62.50
2018-10-18T17:30:42.114Z,62.67
2018-10-18T17:33:10.271Z,61.87
2018-10-18T17:35:38.487Z,61.23
2018-10-18T17:38:06.695Z,61.60
2018-10-18T17:40:34.822Z,59.70
2018-10-18T17:43:03.237Z,57.70
2018-10-18T17:45:31.376Z,58.67
2018-10-18T17:47:59.536Z,58.07
2018-10-18T17:50:27.725Z,56.43
2018-10-18T17:52:56.017Z,57.93
2018-10-18T17:55:24.138Z,55.47
2018-10-18T17:57:52.303Z,55.23
2018-10-18T18:00:20.532Z,54.93
2018-10-18T18:02:48.752Z,53.40
2018-10-18T18:05:17.132Z,53.77
2018-10-18T18:07:45.369Z,53.93
2018-10-18T18:10:15.446Z,57.97
2018-10-18T18:12:43.656Z,54.03
2018-10-18T18:15:11.822Z,57.43
2018-10-18T18:17:40.633Z,55.30
2018-10-18T18:20:10.475Z,55.40
2018-10-18T18:22:38.799Z,52.97
2018-10-18T18:25:08.458Z,55.73
2018-10-18T18:27:36.618Z,54.03
2018-10-18T18:30:06.749Z,53.40
2018-10-18T18:32:35.011Z,53.27
2018-10-18T18:35:03.201Z,52.83
2018-10-18T18:37:31.437Z,50.10
2018-10-18T18:39:59.591Z,50.03
2018-10-18T18:42:27.941Z,49.50
2018-10-18T18:45:01.835Z,48.27
2018-10-18T18:47:30.192Z,48.70
2018-10-18T18:49:58.469Z,49.87
2018-10-18T18:52:26.705Z,48.27
2018-10-18T18:54:54.921Z,47.13
2018-10-18T18:57:23.094Z,46.10
2018-10-18T18:59:51.262Z,48.17
2018-10-18T19:02:19.513Z,50.40
2018-10-18T19:04:47.712Z,51.50
2018-10-18T19:07:15.885Z,47.90
2018-10-18T19:09:44.030Z,48.27
2018-10-18T19:12:12.212Z,47.17
2018-10-18T19:14:40.465Z,46.83
2018-10-18T19:17:08.641Z,51.20
2018-10-18T19:19:37.581Z,58.87
2018-10-18T19:22:06.205Z,53.37
2018-10-18T19:24:34.374Z,45.13
2018-10-18T19:27:02.609Z,45.70
2018-10-18T19:29:30.958Z,43.83
2018-10-18T19:31:59.221Z,43.17
2018-10-18T19:34:27.434Z,42.47
2018-10-18T19:36:55.614Z,42.93
2018-10-18T19:39:23.761Z,50.53
2018-10-18T19:41:51.921Z,47.40
2018-10-18T19:44:20.082Z,41.73
2018-10-18T19:46:48.317Z,53.17
2018-10-18T19:49:16.575Z,50.13
2018-10-18T19:51:44.854Z,43.10
2018-10-18T19:54:13.239Z,41.00
2018-10-18T19:56:41.392Z,42.80
2018-10-18T19:59:09.601Z,40.83
2018-10-18T20:01:37.746Z,37.07
2018-10-18T20:04:06.130Z,39.57
2018-10-18T20:06:34.461Z,39.13
2018-10-18T20:09:02.597Z,42.13
2018-10-18T20:11:30.802Z,39.60
2018-10-18T20:13:59.044Z,37.43
2018-10-18T20:16:27.197Z,38.50
2018-10-18T20:18:55.324Z,36.90
2018-10-18T20:21:23.531Z,37.50
2018-10-18T20:23:51.674Z,36.73
2018-10-18T20:26:20.177Z,37.77
2018-10-18T20:28:48.004Z,38.77
2018-10-18T20:31:16.205Z,39.30
2018-10-18T20:33:44.442Z,39.47
2018-10-18T20:36:12.602Z,41.40
2018-10-18T20:38:40.737Z,39.03
2018-10-18T20:41:09.030Z,39.30
2018-10-18T20:43:37.208Z,39.83
2018-10-18T20:46:05.534Z,40.97
2018-10-18T20:48:33.647Z,41.93
2018-10-18T20:51:01.817Z,40.63
2018-10-18T20:53:29.957Z,41.07
2018-10-18T20:55:58.112Z,41.73
2018-10-18T20:58:26.298Z,39.83
